Terminal Aerodrome Forecast
Issued by NWS

Home | Current Version | Previous Version | Text Only | Print | Product List | Glossary On
Versions: 1 2 3 4 5 6 7 8 9 10 11 12 13 14 15 16 17 18 19 20 21 22 23 24 25 26 27 28 29 30
000
FTUS46 KMTR 230000 AAA
TAFSFO
TAF AMD
KSFO 230022Z 2300/2406 24016G24KT P6SM FEW020 SCT040
      TEMPO 2300/2302 FEW020 BKN040
     FM230400 25011KT P6SM FEW020 SCT040
     FM231800 25006KT P6SM FEW020
     FM232100 29014G22KT P6SM SKC
     FM240300 29011KT P6SM FEW012=

USA.gov is the U.S. government's official web portal to all federal, state and local government web resources and services.